sensor_id;sensor_type;location;lat;lon;timestamp;P1;durP1;ratioP1;P2;durP2;ratioP2
69985;SDS011;57328;52.054;5.294;2023-04-09T00:00:02;38.22;;;15.43;;
69985;SDS011;57328;52.054;5.294;2023-04-09T00:02:30;35.25;;;14.25;;
69985;SDS011;57328;52.054;5.294;2023-04-09T00:04:57;33.75;;;15.45;;
69985;SDS011;57328;52.054;5.294;2023-04-09T00:07:27;37.13;;;16.30;;
69985;SDS011;57328;52.054;5.294;2023-04-09T00:09:54;38.47;;;15.27;;
69985;SDS011;57328;52.054;5.294;2023-04-09T00:12:22;37.10;;;16.00;;
69985;SDS011;57328;52.054;5.294;2023-04-09T00:14:49;35.22;;;15.20;;
69985;SDS011;57328;52.054;5.294;2023-04-09T00:17:16;34.65;;;15.75;;
69985;SDS011;57328;52.054;5.294;2023-04-09T00:19:43;32.70;;;15.02;;
69985;SDS011;57328;52.054;5.294;2023-04-09T00:22:10;37.17;;;16.00;;
69985;SDS011;57328;52.054;5.294;2023-04-09T00:24:38;37.10;;;16.33;;
69985;SDS011;57328;52.054;5.294;2023-04-09T00:27:05;39.05;;;17.52;;
69985;SDS011;57328;52.054;5.294;2023-04-09T00:29:33;41.42;;;17.08;;
69985;SDS011;57328;52.054;5.294;2023-04-09T00:32:00;38.13;;;16.77;;
69985;SDS011;57328;52.054;5.294;2023-04-09T00:34:27;38.03;;;16.23;;
69985;SDS011;57328;52.054;5.294;2023-04-09T00:36:54;38.78;;;16.73;;
69985;SDS011;57328;52.054;5.294;2023-04-09T00:39:22;38.35;;;16.25;;
69985;SDS011;57328;52.054;5.294;2023-04-09T00:41:49;37.17;;;16.27;;
69985;SDS011;57328;52.054;5.294;2023-04-09T00:44:16;36.58;;;15.70;;
69985;SDS011;57328;52.054;5.294;2023-04-09T00:46:43;38.40;;;17.13;;
69985;SDS011;57328;52.054;5.294;2023-04-09T00:49:11;36.85;;;15.38;;
69985;SDS011;57328;52.054;5.294;2023-04-09T00:51:38;33.70;;;14.70;;
69985;SDS011;57328;52.054;5.294;2023-04-09T00:54:06;39.15;;;16.92;;
69985;SDS011;57328;52.054;5.294;2023-04-09T00:56:33;36.17;;;16.15;;
69985;SDS011;57328;52.054;5.294;2023-04-09T00:59:02;38.10;;;15.95;;
69985;SDS011;57328;52.054;5.294;2023-04-09T01:01:29;39.92;;;16.42;;
69985;SDS011;57328;52.054;5.294;2023-04-09T01:03:56;37.25;;;16.75;;
69985;SDS011;57328;52.054;5.294;2023-04-09T01:06:31;38.05;;;16.98;;
69985;SDS011;57328;52.054;5.294;2023-04-09T01:11:31;41.47;;;17.58;;
69985;SDS011;57328;52.054;5.294;2023-04-09T01:14:07;39.60;;;15.80;;
69985;SDS011;57328;52.054;5.294;2023-04-09T01:21:32;41.53;;;15.88;;
69985;SDS011;57328;52.054;5.294;2023-04-09T01:27:05;37.42;;;15.85;;
69985;SDS011;57328;52.054;5.294;2023-04-09T01:29:34;30.33;;;11.82;;
69985;SDS011;57328;52.054;5.294;2023-04-09T01:32:02;34.63;;;13.85;;
69985;SDS011;57328;52.054;5.294;2023-04-09T01:34:29;38.72;;;15.88;;
69985;SDS011;57328;52.054;5.294;2023-04-09T01:36:57;43.03;;;17.15;;
69985;SDS011;57328;52.054;5.294;2023-04-09T01:39:25;32.45;;;12.75;;
69985;SDS011;57328;52.054;5.294;2023-04-09T01:41:52;32.17;;;14.20;;
69985;SDS011;57328;52.054;5.294;2023-04-09T01:44:20;36.97;;;15.73;;
69985;SDS011;57328;52.054;5.294;2023-04-09T01:46:47;39.50;;;16.33;;
69985;SDS011;57328;52.054;5.294;2023-04-09T01:49:16;39.38;;;17.55;;
69985;SDS011;57328;52.054;5.294;2023-04-09T01:51:43;45.88;;;17.27;;
69985;SDS011;57328;52.054;5.294;2023-04-09T01:54:10;41.95;;;16.50;;
69985;SDS011;57328;52.054;5.294;2023-04-09T01:56:38;38.42;;;16.15;;
69985;SDS011;57328;52.054;5.294;2023-04-09T01:59:06;39.10;;;16.70;;
69985;SDS011;57328;52.054;5.294;2023-04-09T02:01:57;38.97;;;16.33;;
69985;SDS011;57328;52.054;5.294;2023-04-09T02:07:00;42.92;;;16.67;;
69985;SDS011;57328;52.054;5.294;2023-04-09T02:09:29;36.33;;;15.52;;
69985;SDS011;57328;52.054;5.294;2023-04-09T02:11:57;35.03;;;15.05;;
69985;SDS011;57328;52.054;5.294;2023-04-09T02:14:25;38.63;;;15.98;;
69985;SDS011;57328;52.054;5.294;2023-04-09T02:16:53;37.25;;;16.05;;
69985;SDS011;57328;52.054;5.294;2023-04-09T02:19:20;36.88;;;15.88;;
69985;SDS011;57328;52.054;5.294;2023-04-09T02:21:47;40.08;;;16.45;;
69985;SDS011;57328;52.054;5.294;2023-04-09T02:24:15;39.63;;;15.65;;
69985;SDS011;57328;52.054;5.294;2023-04-09T02:26:42;33.05;;;15.32;;
69985;SDS011;57328;52.054;5.294;2023-04-09T02:29:09;36.72;;;16.23;;
69985;SDS011;57328;52.054;5.294;2023-04-09T02:31:36;34.65;;;16.17;;
69985;SDS011;57328;52.054;5.294;2023-04-09T02:34:04;34.10;;;15.73;;
69985;SDS011;57328;52.054;5.294;2023-04-09T02:36:31;38.65;;;16.13;;
69985;SDS011;57328;52.054;5.294;2023-04-09T02:38:58;34.08;;;16.38;;
69985;SDS011;57328;52.054;5.294;2023-04-09T02:41:25;37.50;;;16.58;;
69985;SDS011;57328;52.054;5.294;2023-04-09T02:43:53;33.80;;;15.00;;
69985;SDS011;57328;52.054;5.294;2023-04-09T02:46:20;39.22;;;16.13;;
69985;SDS011;57328;52.054;5.294;2023-04-09T02:48:48;36.25;;;15.85;;
69985;SDS011;57328;52.054;5.294;2023-04-09T02:51:15;34.08;;;15.82;;
69985;SDS011;57328;52.054;5.294;2023-04-09T02:53:42;34.40;;;15.35;;
69985;SDS011;57328;52.054;5.294;2023-04-09T02:56:10;35.80;;;15.70;;
69985;SDS011;57328;52.054;5.294;2023-04-09T02:58:37;34.85;;;15.32;;
69985;SDS011;57328;52.054;5.294;2023-04-09T03:01:05;39.22;;;16.23;;
69985;SDS011;57328;52.054;5.294;2023-04-09T03:03:32;36.15;;;17.33;;
69985;SDS011;57328;52.054;5.294;2023-04-09T03:05:59;42.47;;;18.17;;
69985;SDS011;57328;52.054;5.294;2023-04-09T03:08:26;39.55;;;17.02;;
69985;SDS011;57328;52.054;5.294;2023-04-09T03:10:53;41.80;;;17.42;;
69985;SDS011;57328;52.054;5.294;2023-04-09T03:13:21;41.15;;;18.40;;
69985;SDS011;57328;52.054;5.294;2023-04-09T03:15:51;38.13;;;16.80;;
69985;SDS011;57328;52.054;5.294;2023-04-09T03:18:18;40.00;;;16.95;;
69985;SDS011;57328;52.054;5.294;2023-04-09T03:20:45;36.17;;;16.60;;
69985;SDS011;57328;52.054;5.294;2023-04-09T03:23:13;36.10;;;15.32;;
69985;SDS011;57328;52.054;5.294;2023-04-09T03:25:40;34.92;;;15.60;;
69985;SDS011;57328;52.054;5.294;2023-04-09T03:28:07;35.33;;;15.82;;
69985;SDS011;57328;52.054;5.294;2023-04-09T03:30:34;38.20;;;17.38;;
69985;SDS011;57328;52.054;5.294;2023-04-09T03:33:02;37.95;;;16.33;;
69985;SDS011;57328;52.054;5.294;2023-04-09T03:35:29;39.05;;;17.17;;
69985;SDS011;57328;52.054;5.294;2023-04-09T03:37:56;35.05;;;16.38;;
69985;SDS011;57328;52.054;5.294;2023-04-09T03:40:23;34.15;;;14.88;;
69985;SDS011;57328;52.054;5.294;2023-04-09T03:42:50;38.13;;;16.25;;
69985;SDS011;57328;52.054;5.294;2023-04-09T03:45:17;39.00;;;16.05;;
69985;SDS011;57328;52.054;5.294;2023-04-09T03:47:44;31.17;;;14.32;;
69985;SDS011;57328;52.054;5.294;2023-04-09T03:50:12;34.38;;;15.38;;
69985;SDS011;57328;52.054;5.294;2023-04-09T03:52:39;36.28;;;16.83;;
69985;SDS011;57328;52.054;5.294;2023-04-09T03:55:06;38.55;;;17.67;;
69985;SDS011;57328;52.054;5.294;2023-04-09T03:57:34;39.40;;;16.95;;
69985;SDS011;57328;52.054;5.294;2023-04-09T04:00:01;37.22;;;16.70;;
69985;SDS011;57328;52.054;5.294;2023-04-09T04:02:29;36.70;;;15.80;;
69985;SDS011;57328;52.054;5.294;2023-04-09T04:04:59;40.72;;;16.13;;
69985;SDS011;57328;52.054;5.294;2023-04-09T04:07:26;37.95;;;16.05;;
69985;SDS011;57328;52.054;5.294;2023-04-09T04:09:53;38.50;;;16.67;;
69985;SDS011;57328;52.054;5.294;2023-04-09T04:12:20;40.90;;;17.35;;
69985;SDS011;57328;52.054;5.294;2023-04-09T04:14:48;35.70;;;15.95;;
69985;SDS011;57328;52.054;5.294;2023-04-09T04:17:15;34.38;;;15.57;;
69985;SDS011;57328;52.054;5.294;2023-04-09T04:19:42;38.08;;;15.80;;
69985;SDS011;57328;52.054;5.294;2023-04-09T04:22:09;34.45;;;14.32;;
69985;SDS011;57328;52.054;5.294;2023-04-09T04:24:36;34.22;;;14.40;;
69985;SDS011;57328;52.054;5.294;2023-04-09T04:27:04;32.78;;;14.50;;
69985;SDS011;57328;52.054;5.294;2023-04-09T04:29:31;36.45;;;16.42;;
69985;SDS011;57328;52.054;5.294;2023-04-09T04:31:59;33.45;;;15.23;;
69985;SDS011;57328;52.054;5.294;2023-04-09T04:34:26;33.75;;;15.27;;
69985;SDS011;57328;52.054;5.294;2023-04-09T04:36:53;36.92;;;16.50;;
69985;SDS011;57328;52.054;5.294;2023-04-09T04:39:21;36.47;;;16.38;;
69985;SDS011;57328;52.054;5.294;2023-04-09T04:41:48;37.55;;;15.85;;
69985;SDS011;57328;52.054;5.294;2023-04-09T04:44:15;38.95;;;16.73;;
69985;SDS011;57328;52.054;5.294;2023-04-09T04:46:42;35.70;;;16.05;;
69985;SDS011;57328;52.054;5.294;2023-04-09T04:49:09;37.22;;;17.30;;
69985;SDS011;57328;52.054;5.294;2023-04-09T04:51:36;35.90;;;15.20;;
69985;SDS011;57328;52.054;5.294;2023-04-09T04:54:04;39.53;;;17.27;;
69985;SDS011;57328;52.054;5.294;2023-04-09T04:56:31;37.25;;;17.30;;
69985;SDS011;57328;52.054;5.294;2023-04-09T04:58:59;37.75;;;16.35;;
69985;SDS011;57328;52.054;5.294;2023-04-09T05:01:26;39.83;;;15.70;;
69985;SDS011;57328;52.054;5.294;2023-04-09T05:03:53;39.28;;;16.42;;
69985;SDS011;57328;52.054;5.294;2023-04-09T05:06:21;35.03;;;16.65;;
69985;SDS011;57328;52.054;5.294;2023-04-09T05:08:49;34.95;;;15.98;;
69985;SDS011;57328;52.054;5.294;2023-04-09T05:11:17;37.20;;;17.10;;
69985;SDS011;57328;52.054;5.294;2023-04-09T05:13:44;38.90;;;16.88;;
69985;SDS011;57328;52.054;5.294;2023-04-09T05:16:15;37.63;;;16.65;;
69985;SDS011;57328;52.054;5.294;2023-04-09T05:18:43;41.58;;;17.05;;
69985;SDS011;57328;52.054;5.294;2023-04-09T05:21:10;38.95;;;15.18;;
69985;SDS011;57328;52.054;5.294;2023-04-09T05:23:37;44.10;;;19.27;;
69985;SDS011;57328;52.054;5.294;2023-04-09T05:26:04;44.60;;;18.15;;
69985;SDS011;57328;52.054;5.294;2023-04-09T05:28:31;45.42;;;17.92;;
69985;SDS011;57328;52.054;5.294;2023-04-09T05:30:59;49.47;;;20.83;;
69985;SDS011;57328;52.054;5.294;2023-04-09T05:33:26;48.22;;;18.63;;
69985;SDS011;57328;52.054;5.294;2023-04-09T05:35:54;52.17;;;21.48;;
69985;SDS011;57328;52.054;5.294;2023-04-09T05:38:21;58.15;;;22.30;;
69985;SDS011;57328;52.054;5.294;2023-04-09T05:40:48;56.40;;;23.40;;
69985;SDS011;57328;52.054;5.294;2023-04-09T05:43:15;58.55;;;22.50;;
69985;SDS011;57328;52.054;5.294;2023-04-09T05:45:43;56.97;;;23.73;;
69985;SDS011;57328;52.054;5.294;2023-04-09T05:48:10;51.35;;;21.75;;
69985;SDS011;57328;52.054;5.294;2023-04-09T05:50:37;55.47;;;22.40;;
69985;SDS011;57328;52.054;5.294;2023-04-09T05:53:19;53.83;;;22.75;;
69985;SDS011;57328;52.054;5.294;2023-04-09T05:55:46;48.28;;;19.35;;
69985;SDS011;57328;52.054;5.294;2023-04-09T05:58:17;57.97;;;22.35;;
69985;SDS011;57328;52.054;5.294;2023-04-09T06:00:44;54.53;;;21.30;;
69985;SDS011;57328;52.054;5.294;2023-04-09T06:03:12;50.95;;;22.15;;
69985;SDS011;57328;52.054;5.294;2023-04-09T06:05:39;50.42;;;20.67;;
69985;SDS011;57328;52.054;5.294;2023-04-09T06:08:06;58.72;;;23.50;;
69985;SDS011;57328;52.054;5.294;2023-04-09T06:10:34;53.35;;;22.25;;
69985;SDS011;57328;52.054;5.294;2023-04-09T06:13:01;52.35;;;21.98;;
69985;SDS011;57328;52.054;5.294;2023-04-09T06:15:28;50.03;;;21.83;;
69985;SDS011;57328;52.054;5.294;2023-04-09T06:17:55;53.85;;;23.42;;
69985;SDS011;57328;52.054;5.294;2023-04-09T06:20:24;45.42;;;18.30;;
69985;SDS011;57328;52.054;5.294;2023-04-09T06:22:52;49.97;;;20.33;;
69985;SDS011;57328;52.054;5.294;2023-04-09T06:25:19;49.88;;;21.42;;
69985;SDS011;57328;52.054;5.294;2023-04-09T06:27:46;49.45;;;20.75;;
69985;SDS011;57328;52.054;5.294;2023-04-09T06:30:13;53.80;;;20.92;;
69985;SDS011;57328;52.054;5.294;2023-04-09T06:32:40;48.63;;;21.52;;
69985;SDS011;57328;52.054;5.294;2023-04-09T06:35:19;51.20;;;21.05;;
69985;SDS011;57328;52.054;5.294;2023-04-09T06:37:46;46.42;;;19.48;;
69985;SDS011;57328;52.054;5.294;2023-04-09T06:40:13;50.47;;;20.35;;
69985;SDS011;57328;52.054;5.294;2023-04-09T06:42:41;44.85;;;18.50;;
69985;SDS011;57328;52.054;5.294;2023-04-09T06:45:08;46.63;;;19.98;;
69985;SDS011;57328;52.054;5.294;2023-04-09T06:47:35;41.63;;;19.00;;
69985;SDS011;57328;52.054;5.294;2023-04-09T06:50:03;43.47;;;18.60;;
69985;SDS011;57328;52.054;5.294;2023-04-09T06:52:30;43.53;;;19.48;;
69985;SDS011;57328;52.054;5.294;2023-04-09T06:54:57;42.80;;;19.35;;
69985;SDS011;57328;52.054;5.294;2023-04-09T06:57:25;45.22;;;18.88;;
69985;SDS011;57328;52.054;5.294;2023-04-09T06:59:52;41.45;;;18.65;;
69985;SDS011;57328;52.054;5.294;2023-04-09T07:02:19;42.42;;;18.08;;
69985;SDS011;57328;52.054;5.294;2023-04-09T07:04:47;41.65;;;19.02;;
69985;SDS011;57328;52.054;5.294;2023-04-09T07:07:14;43.88;;;18.20;;
69985;SDS011;57328;52.054;5.294;2023-04-09T07:09:43;38.05;;;17.73;;
69985;SDS011;57328;52.054;5.294;2023-04-09T07:12:10;36.05;;;16.75;;
69985;SDS011;57328;52.054;5.294;2023-04-09T07:14:37;35.63;;;16.35;;
69985;SDS011;57328;52.054;5.294;2023-04-09T07:17:04;38.90;;;17.10;;
69985;SDS011;57328;52.054;5.294;2023-04-09T07:19:31;37.08;;;17.05;;
69985;SDS011;57328;52.054;5.294;2023-04-09T07:21:58;36.58;;;16.05;;
69985;SDS011;57328;52.054;5.294;2023-04-09T07:24:26;34.42;;;15.40;;
69985;SDS011;57328;52.054;5.294;2023-04-09T07:26:53;30.10;;;13.63;;
69985;SDS011;57328;52.054;5.294;2023-04-09T07:29:21;34.63;;;15.02;;
69985;SDS011;57328;52.054;5.294;2023-04-09T07:31:48;29.15;;;14.63;;
69985;SDS011;57328;52.054;5.294;2023-04-09T07:34:16;33.95;;;15.60;;
69985;SDS011;57328;52.054;5.294;2023-04-09T07:36:43;34.05;;;13.55;;
69985;SDS011;57328;52.054;5.294;2023-04-09T07:39:10;31.45;;;14.32;;
69985;SDS011;57328;52.054;5.294;2023-04-09T07:41:37;35.15;;;15.52;;
69985;SDS011;57328;52.054;5.294;2023-04-09T07:44:04;33.33;;;15.20;;
69985;SDS011;57328;52.054;5.294;2023-04-09T07:46:32;30.13;;;14.38;;
69985;SDS011;57328;52.054;5.294;2023-04-09T07:48:59;30.77;;;15.10;;
69985;SDS011;57328;52.054;5.294;2023-04-09T07:51:26;30.73;;;15.65;;
69985;SDS011;57328;52.054;5.294;2023-04-09T07:53:54;33.60;;;16.42;;
69985;SDS011;57328;52.054;5.294;2023-04-09T07:56:21;33.55;;;15.50;;
69985;SDS011;57328;52.054;5.294;2023-04-09T07:58:48;28.00;;;13.75;;
69985;SDS011;57328;52.054;5.294;2023-04-09T08:01:16;31.40;;;14.20;;
69985;SDS011;57328;52.054;5.294;2023-04-09T08:03:43;30.80;;;14.38;;
69985;SDS011;57328;52.054;5.294;2023-04-09T08:06:11;29.40;;;14.73;;
69985;SDS011;57328;52.054;5.294;2023-04-09T08:08:38;31.05;;;15.85;;
69985;SDS011;57328;52.054;5.294;2023-04-09T08:11:05;30.83;;;14.68;;
69985;SDS011;57328;52.054;5.294;2023-04-09T08:13:33;30.23;;;15.15;;
69985;SDS011;57328;52.054;5.294;2023-04-09T08:16:00;32.13;;;17.00;;
69985;SDS011;57328;52.054;5.294;2023-04-09T08:18:27;27.58;;;13.30;;
69985;SDS011;57328;52.054;5.294;2023-04-09T08:20:55;30.77;;;16.75;;
69985;SDS011;57328;52.054;5.294;2023-04-09T08:23:23;29.95;;;15.88;;
69985;SDS011;57328;52.054;5.294;2023-04-09T08:25:50;32.05;;;15.50;;
69985;SDS011;57328;52.054;5.294;2023-04-09T08:28:17;30.42;;;16.10;;
69985;SDS011;57328;52.054;5.294;2023-04-09T08:30:44;30.17;;;15.85;;
69985;SDS011;57328;52.054;5.294;2023-04-09T08:33:13;27.88;;;14.73;;
69985;SDS011;57328;52.054;5.294;2023-04-09T08:35:40;28.95;;;14.88;;
69985;SDS011;57328;52.054;5.294;2023-04-09T08:38:07;29.02;;;15.02;;
69985;SDS011;57328;52.054;5.294;2023-04-09T08:40:35;27.85;;;14.52;;
69985;SDS011;57328;52.054;5.294;2023-04-09T08:43:05;28.63;;;15.07;;
69985;SDS011;57328;52.054;5.294;2023-04-09T08:45:33;28.10;;;14.82;;
69985;SDS011;57328;52.054;5.294;2023-04-09T08:48:01;28.15;;;15.60;;
69985;SDS011;57328;52.054;5.294;2023-04-09T08:50:30;28.55;;;15.02;;
69985;SDS011;57328;52.054;5.294;2023-04-09T08:52:57;30.92;;;15.77;;
69985;SDS011;57328;52.054;5.294;2023-04-09T08:55:25;27.10;;;14.82;;
69985;SDS011;57328;52.054;5.294;2023-04-09T08:57:52;30.75;;;15.73;;
69985;SDS011;57328;52.054;5.294;2023-04-09T09:00:19;27.05;;;12.55;;
69985;SDS011;57328;52.054;5.294;2023-04-09T09:03:05;31.33;;;16.40;;
69985;SDS011;57328;52.054;5.294;2023-04-09T09:05:40;28.92;;;14.60;;
69985;SDS011;57328;52.054;5.294;2023-04-09T09:08:08;30.05;;;14.98;;
69985;SDS011;57328;52.054;5.294;2023-04-09T09:10:40;33.22;;;17.95;;
69985;SDS011;57328;52.054;5.294;2023-04-09T09:13:23;33.90;;;19.30;;
69985;SDS011;57328;52.054;5.294;2023-04-09T09:15:51;35.83;;;19.40;;
69985;SDS011;57328;52.054;5.294;2023-04-09T09:18:39;37.22;;;20.17;;
69985;SDS011;57328;52.054;5.294;2023-04-09T09:21:16;35.72;;;20.58;;
69985;SDS011;57328;52.054;5.294;2023-04-09T09:23:44;26.15;;;14.43;;
69985;SDS011;57328;52.054;5.294;2023-04-09T09:26:14;30.08;;;16.42;;
69985;SDS011;57328;52.054;5.294;2023-04-09T09:28:42;35.38;;;20.13;;
69985;SDS011;57328;52.054;5.294;2023-04-09T09:31:09;33.55;;;18.10;;
69985;SDS011;57328;52.054;5.294;2023-04-09T09:33:37;34.47;;;19.90;;
69985;SDS011;57328;52.054;5.294;2023-04-09T09:36:05;37.40;;;20.58;;
69985;SDS011;57328;52.054;5.294;2023-04-09T09:38:54;37.03;;;20.25;;
69985;SDS011;57328;52.054;5.294;2023-04-09T09:41:23;37.55;;;21.52;;
69985;SDS011;57328;52.054;5.294;2023-04-09T09:43:51;37.55;;;20.20;;
69985;SDS011;57328;52.054;5.294;2023-04-09T09:46:18;35.67;;;20.38;;
69985;SDS011;57328;52.054;5.294;2023-04-09T09:48:46;28.85;;;16.45;;
69985;SDS011;57328;52.054;5.294;2023-04-09T09:51:15;36.03;;;21.08;;
69985;SDS011;57328;52.054;5.294;2023-04-09T09:53:42;36.95;;;21.05;;
69985;SDS011;57328;52.054;5.294;2023-04-09T09:56:19;39.22;;;22.90;;
69985;SDS011;57328;52.054;5.294;2023-04-09T10:01:33;28.35;;;16.48;;
69985;SDS011;57328;52.054;5.294;2023-04-09T10:06:29;33.22;;;20.50;;
69985;SDS011;57328;52.054;5.294;2023-04-09T10:08:56;34.42;;;19.45;;
69985;SDS011;57328;52.054;5.294;2023-04-09T10:11:24;35.63;;;19.75;;
69985;SDS011;57328;52.054;5.294;2023-04-09T10:13:58;33.42;;;19.98;;
69985;SDS011;57328;52.054;5.294;2023-04-09T10:16:26;32.72;;;19.60;;
69985;SDS011;57328;52.054;5.294;2023-04-09T10:18:54;36.28;;;18.98;;
69985;SDS011;57328;52.054;5.294;2023-04-09T10:21:28;33.05;;;18.83;;
69985;SDS011;57328;52.054;5.294;2023-04-09T10:23:57;34.05;;;19.65;;
69985;SDS011;57328;52.054;5.294;2023-04-09T10:26:25;30.73;;;15.82;;
69985;SDS011;57328;52.054;5.294;2023-04-09T10:29:03;35.20;;;20.63;;
69985;SDS011;57328;52.054;5.294;2023-04-09T10:31:52;35.80;;;18.75;;
69985;SDS011;57328;52.054;5.294;2023-04-09T10:34:22;26.33;;;14.70;;
69985;SDS011;57328;52.054;5.294;2023-04-09T10:36:51;31.52;;;16.70;;
69985;SDS011;57328;52.054;5.294;2023-04-09T10:39:18;33.35;;;19.90;;
69985;SDS011;57328;52.054;5.294;2023-04-09T10:41:47;33.28;;;18.13;;
69985;SDS011;57328;52.054;5.294;2023-04-09T10:46:48;27.73;;;15.95;;
69985;SDS011;57328;52.054;5.294;2023-04-09T10:49:17;31.48;;;18.67;;
69985;SDS011;57328;52.054;5.294;2023-04-09T10:59:34;24.02;;;15.13;;
69985;SDS011;57328;52.054;5.294;2023-04-09T11:02:02;27.27;;;15.05;;
69985;SDS011;57328;52.054;5.294;2023-04-09T11:07:18;31.00;;;17.13;;
69985;SDS011;57328;52.054;5.294;2023-04-09T11:09:48;30.50;;;17.48;;
69985;SDS011;57328;52.054;5.294;2023-04-09T11:12:15;31.35;;;18.63;;
69985;SDS011;57328;52.054;5.294;2023-04-09T11:14:42;24.50;;;15.02;;
69985;SDS011;57328;52.054;5.294;2023-04-09T11:17:10;27.23;;;15.40;;
69985;SDS011;57328;52.054;5.294;2023-04-09T11:19:38;25.40;;;15.15;;
69985;SDS011;57328;52.054;5.294;2023-04-09T11:22:05;24.50;;;13.18;;
69985;SDS011;57328;52.054;5.294;2023-04-09T11:24:42;23.38;;;13.52;;
69985;SDS011;57328;52.054;5.294;2023-04-09T11:27:09;23.40;;;13.32;;
69985;SDS011;57328;52.054;5.294;2023-04-09T11:29:36;26.98;;;15.27;;
69985;SDS011;57328;52.054;5.294;2023-04-09T11:32:04;19.15;;;11.27;;
69985;SDS011;57328;52.054;5.294;2023-04-09T11:34:31;24.15;;;14.30;;
69985;SDS011;57328;52.054;5.294;2023-04-09T11:36:58;22.35;;;12.27;;
69985;SDS011;57328;52.054;5.294;2023-04-09T11:39:30;21.73;;;13.52;;
69985;SDS011;57328;52.054;5.294;2023-04-09T11:41:57;24.10;;;14.02;;
69985;SDS011;57328;52.054;5.294;2023-04-09T11:44:24;21.65;;;13.48;;
69985;SDS011;57328;52.054;5.294;2023-04-09T11:46:52;22.77;;;13.23;;
69985;SDS011;57328;52.054;5.294;2023-04-09T11:49:19;22.98;;;13.52;;
69985;SDS011;57328;52.054;5.294;2023-04-09T11:51:47;21.10;;;13.32;;
69985;SDS011;57328;52.054;5.294;2023-04-09T11:54:14;20.48;;;12.05;;
69985;SDS011;57328;52.054;5.294;2023-04-09T11:56:41;21.17;;;11.93;;
69985;SDS011;57328;52.054;5.294;2023-04-09T11:59:08;18.23;;;9.98;;
69985;SDS011;57328;52.054;5.294;2023-04-09T12:01:36;15.73;;;9.32;;
69985;SDS011;57328;52.054;5.294;2023-04-09T12:04:03;18.20;;;10.25;;
69985;SDS011;57328;52.054;5.294;2023-04-09T12:06:32;17.20;;;10.48;;
69985;SDS011;57328;52.054;5.294;2023-04-09T12:08:59;17.98;;;10.18;;
69985;SDS011;57328;52.054;5.294;2023-04-09T12:11:27;15.07;;;8.63;;
69985;SDS011;57328;52.054;5.294;2023-04-09T12:13:58;18.35;;;10.43;;
69985;SDS011;57328;52.054;5.294;2023-04-09T12:16:26;19.23;;;11.30;;
69985;SDS011;57328;52.054;5.294;2023-04-09T12:18:59;17.75;;;10.98;;
69985;SDS011;57328;52.054;5.294;2023-04-09T12:21:43;16.85;;;10.65;;
69985;SDS011;57328;52.054;5.294;2023-04-09T12:24:12;14.23;;;9.20;;
69985;SDS011;57328;52.054;5.294;2023-04-09T12:26:39;18.45;;;11.07;;
69985;SDS011;57328;52.054;5.294;2023-04-09T12:29:06;15.05;;;9.07;;
69985;SDS011;57328;52.054;5.294;2023-04-09T12:31:33;17.27;;;10.73;;
69985;SDS011;57328;52.054;5.294;2023-04-09T12:34:01;17.73;;;10.82;;
69985;SDS011;57328;52.054;5.294;2023-04-09T12:36:28;16.52;;;10.00;;
69985;SDS011;57328;52.054;5.294;2023-04-09T12:38:55;19.55;;;10.77;;
69985;SDS011;57328;52.054;5.294;2023-04-09T12:41:23;16.63;;;9.45;;
69985;SDS011;57328;52.054;5.294;2023-04-09T12:43:50;19.02;;;10.82;;
69985;SDS011;57328;52.054;5.294;2023-04-09T12:46:18;19.85;;;11.77;;
69985;SDS011;57328;52.054;5.294;2023-04-09T12:48:45;21.48;;;12.60;;
69985;SDS011;57328;52.054;5.294;2023-04-09T12:51:13;19.75;;;11.68;;
69985;SDS011;57328;52.054;5.294;2023-04-09T12:53:40;17.88;;;10.98;;
69985;SDS011;57328;52.054;5.294;2023-04-09T12:56:08;18.23;;;11.63;;
69985;SDS011;57328;52.054;5.294;2023-04-09T12:58:35;18.75;;;10.77;;
69985;SDS011;57328;52.054;5.294;2023-04-09T13:01:03;15.70;;;9.60;;
69985;SDS011;57328;52.054;5.294;2023-04-09T13:03:30;16.95;;;9.95;;
69985;SDS011;57328;52.054;5.294;2023-04-09T13:05:58;14.25;;;8.05;;
69985;SDS011;57328;52.054;5.294;2023-04-09T13:08:25;17.73;;;10.68;;
69985;SDS011;57328;52.054;5.294;2023-04-09T13:10:53;17.58;;;10.27;;
69985;SDS011;57328;52.054;5.294;2023-04-09T13:13:20;17.67;;;9.90;;
69985;SDS011;57328;52.054;5.294;2023-04-09T13:15:47;16.08;;;9.38;;
69985;SDS011;57328;52.054;5.294;2023-04-09T13:18:15;16.40;;;9.43;;
69985;SDS011;57328;52.054;5.294;2023-04-09T13:20:42;15.43;;;9.65;;
69985;SDS011;57328;52.054;5.294;2023-04-09T13:23:09;15.02;;;9.05;;
69985;SDS011;57328;52.054;5.294;2023-04-09T13:25:36;15.07;;;8.70;;
69985;SDS011;57328;52.054;5.294;2023-04-09T13:28:04;14.88;;;8.90;;
69985;SDS011;57328;52.054;5.294;2023-04-09T13:30:31;16.92;;;9.75;;
69985;SDS011;57328;52.054;5.294;2023-04-09T13:32:58;15.98;;;9.70;;
69985;SDS011;57328;52.054;5.294;2023-04-09T13:35:26;16.25;;;9.73;;
69985;SDS011;57328;52.054;5.294;2023-04-09T13:37:53;15.25;;;8.63;;
69985;SDS011;57328;52.054;5.294;2023-04-09T13:40:20;17.48;;;9.27;;
69985;SDS011;57328;52.054;5.294;2023-04-09T13:42:48;15.88;;;9.45;;
69985;SDS011;57328;52.054;5.294;2023-04-09T13:45:15;15.93;;;10.02;;
69985;SDS011;57328;52.054;5.294;2023-04-09T13:47:43;14.68;;;8.32;;
69985;SDS011;57328;52.054;5.294;2023-04-09T13:50:10;15.75;;;9.02;;
69985;SDS011;57328;52.054;5.294;2023-04-09T13:52:39;16.63;;;9.63;;
69985;SDS011;57328;52.054;5.294;2023-04-09T13:55:06;14.23;;;8.70;;
69985;SDS011;57328;52.054;5.294;2023-04-09T13:57:34;15.60;;;9.23;;
69985;SDS011;57328;52.054;5.294;2023-04-09T14:00:01;15.95;;;8.60;;
69985;SDS011;57328;52.054;5.294;2023-04-09T14:02:30;15.25;;;7.80;;
69985;SDS011;57328;52.054;5.294;2023-04-09T14:04:58;14.73;;;8.15;;
69985;SDS011;57328;52.054;5.294;2023-04-09T14:07:25;15.93;;;8.77;;
69985;SDS011;57328;52.054;5.294;2023-04-09T14:09:52;13.73;;;7.15;;
69985;SDS011;57328;52.054;5.294;2023-04-09T14:12:20;12.90;;;7.30;;
69985;SDS011;57328;52.054;5.294;2023-04-09T14:14:47;11.50;;;6.65;;
69985;SDS011;57328;52.054;5.294;2023-04-09T14:17:15;11.85;;;6.55;;
69985;SDS011;57328;52.054;5.294;2023-04-09T14:20:19;12.80;;;7.15;;
69985;SDS011;57328;52.054;5.294;2023-04-09T14:22:54;12.93;;;7.20;;
69985;SDS011;57328;52.054;5.294;2023-04-09T14:25:23;14.30;;;6.78;;
69985;SDS011;57328;52.054;5.294;2023-04-09T14:27:51;15.25;;;8.30;;
69985;SDS011;57328;52.054;5.294;2023-04-09T14:30:21;15.43;;;8.00;;
69985;SDS011;57328;52.054;5.294;2023-04-09T14:32:49;15.52;;;7.72;;
69985;SDS011;57328;52.054;5.294;2023-04-09T14:35:17;13.40;;;7.65;;
69985;SDS011;57328;52.054;5.294;2023-04-09T14:37:44;13.93;;;7.53;;
69985;SDS011;57328;52.054;5.294;2023-04-09T14:40:12;15.82;;;7.40;;
69985;SDS011;57328;52.054;5.294;2023-04-09T14:42:40;14.35;;;7.13;;
69985;SDS011;57328;52.054;5.294;2023-04-09T14:45:07;14.27;;;7.20;;
69985;SDS011;57328;52.054;5.294;2023-04-09T14:47:34;14.10;;;7.50;;
69985;SDS011;57328;52.054;5.294;2023-04-09T14:50:03;14.43;;;7.82;;
69985;SDS011;57328;52.054;5.294;2023-04-09T14:52:49;12.70;;;7.32;;
69985;SDS011;57328;52.054;5.294;2023-04-09T14:55:16;12.07;;;6.18;;
69985;SDS011;57328;52.054;5.294;2023-04-09T15:00:33;14.80;;;7.47;;
69985;SDS011;57328;52.054;5.294;2023-04-09T15:03:01;16.10;;;8.52;;